Lester Prairie, MN (55354)

1:42 PM CDT on October 21, 2019 (GMT -0500)
Coldwater Crossing | | Change Station
Active Advisory: Wind Advisory

Elev 963 ft 44.89 °N, 93.90 °W | Updated 3 seconds ago

Mostly Cloudy
Mostly Cloudy
46.2 °F
Feels Like 44 °F
N
5.37
Wind Variable Wind from North
Gusts 7.6 mph

Today
High -- | Low -- °F
--% Chance of Precip.
Yesterday
High -- | Low -- °F
Precip. -- in
Pressure 29.13 in
Visibility 10.0 miles
Clouds Overcast 500 ft
Windchill 44 °F
Dew Point 46 °F
Humidity 99%
Rainfall 0.86 in
Snow Depth Not available.
7:39 AM 6:21 PM
Waning Gibbous, 47% visible
METAR KGYL 211839Z AUTO 01004KT 10SM OVC005 09/09 A2913 RMK AO2 P0001 T00850085
Pressure 29.13 in
Visibility 10.0 miles
Clouds Overcast 500 ft
Windchill 44 °F
Dew Point 46 °F
Humidity 99%
Rainfall 0.86 in
Snow Depth Not available.
7:39 AM 6:21 PM
Waning Gibbous, 47% visible
METAR KGYL 211839Z AUTO 01004KT 10SM OVC005 09/09 A2913 RMK AO2 P0001 T00850085

Get Your Daily Forecast Email!

Thanks for signing up!

Be on the lookout for a verification email in your inbox.

You'll start receiving severe weather alerts in your inbox..

×

10-Day Weather Forecast

Almanac

Astronomy

Oct. 21, 2019 Rise Set
Actual Time
Civil Twilight
Nautical Twilight
Astronomical Twilight
Moon
Length of Visible Light
Length of Day
Tomorrow will be .
, % of the Moon is Illuminated

Today's Extremes

State Highs State Lows

Community

WunderPhotos

Category 6

Welcome to Category 6. This is the collective home for Weather Underground's featured writeups by Dr. Jeff Masters (right), Bob Henson (left), Chris Burt, and other regular contributors.

Nearby

Air Quality

  Air Quality AQ Index Pollutant
Not available.

Snow Depth

Station Depth Elevation

Earthquake Activity

City Distance Mag. Time & Date
Minimum magnitude displayed is 2.5.

Coastal Water Temperatures

Place Temperature

Stations

Nearby Weather Stations

Station Location Temp. Windchill Dew Point Humidity Wind Precip. Elev Updated Type
                   

Watches & Warnings

Wind Advisory
Issued: 12:08 PM CDT Oct. 21, 2019 – National Weather Service

... Wind Advisory remains in effect until 6 PM CDT Tuesday...

* what... northwest winds 20 to 30 mph with gusts up to 50 mph
expected.

* Where... Douglas, Stearns, Todd, Sibley, McLeod and Meeker
counties.

* When... until 6 PM CDT Tuesday.

* Impacts... gusty winds could blow around unsecured objects.
Tree limbs could be blown down and a few power outages may
result.

Precautionary/preparedness actions...

Use extra caution when driving, especially if operating a high
profile vehicle. Secure outdoor objects.